sensor_id;sensor_type;location;lat;lon;timestamp;P1;durP1;ratioP1;P2;durP2;ratioP2
59042;SDS011;44826;51.596;5.624;2023-04-25T00:00:23;6.85;;;1.92;;
59042;SDS011;44826;51.596;5.624;2023-04-25T00:02:48;8.10;;;2.60;;
59042;SDS011;44826;51.596;5.624;2023-04-25T00:05:14;6.28;;;2.00;;
59042;SDS011;44826;51.596;5.624;2023-04-25T00:07:42;5.88;;;2.13;;
59042;SDS011;44826;51.596;5.624;2023-04-25T00:10:08;4.63;;;1.90;;
59042;SDS011;44826;51.596;5.624;2023-04-25T00:12:34;5.88;;;2.10;;
59042;SDS011;44826;51.596;5.624;2023-04-25T00:15:00;6.25;;;1.80;;
59042;SDS011;44826;51.596;5.624;2023-04-25T00:17:26;6.15;;;1.73;;
59042;SDS011;44826;51.596;5.624;2023-04-25T00:19:51;5.15;;;2.08;;
59042;SDS011;44826;51.596;5.624;2023-04-25T00:22:17;5.35;;;2.00;;
59042;SDS011;44826;51.596;5.624;2023-04-25T00:24:42;10.60;;;2.05;;
59042;SDS011;44826;51.596;5.624;2023-04-25T00:27:08;5.30;;;1.80;;
59042;SDS011;44826;51.596;5.624;2023-04-25T00:29:33;6.63;;;2.17;;
59042;SDS011;44826;51.596;5.624;2023-04-25T00:31:59;4.90;;;1.67;;
59042;SDS011;44826;51.596;5.624;2023-04-25T00:34:24;6.47;;;1.90;;
59042;SDS011;44826;51.596;5.624;2023-04-25T00:36:49;6.30;;;1.95;;
59042;SDS011;44826;51.596;5.624;2023-04-25T00:39:15;7.97;;;1.85;;
59042;SDS011;44826;51.596;5.624;2023-04-25T00:41:40;4.38;;;1.83;;
59042;SDS011;44826;51.596;5.624;2023-04-25T00:44:05;7.28;;;2.30;;
59042;SDS011;44826;51.596;5.624;2023-04-25T00:46:33;5.38;;;1.70;;
59042;SDS011;44826;51.596;5.624;2023-04-25T00:49:00;7.97;;;2.72;;
59042;SDS011;44826;51.596;5.624;2023-04-25T00:51:25;8.90;;;2.00;;
59042;SDS011;44826;51.596;5.624;2023-04-25T00:53:51;5.18;;;1.80;;
59042;SDS011;44826;51.596;5.624;2023-04-25T00:56:17;6.82;;;1.98;;
59042;SDS011;44826;51.596;5.624;2023-04-25T00:58:43;6.45;;;1.95;;
59042;SDS011;44826;51.596;5.624;2023-04-25T01:01:08;5.85;;;1.88;;
59042;SDS011;44826;51.596;5.624;2023-04-25T01:03:35;6.32;;;1.60;;
59042;SDS011;44826;51.596;5.624;2023-04-25T01:06:05;7.15;;;2.17;;
59042;SDS011;44826;51.596;5.624;2023-04-25T01:08:34;6.38;;;1.80;;
59042;SDS011;44826;51.596;5.624;2023-04-25T01:11:00;5.82;;;2.20;;
59042;SDS011;44826;51.596;5.624;2023-04-25T01:13:25;5.25;;;1.85;;
59042;SDS011;44826;51.596;5.624;2023-04-25T01:15:51;8.80;;;2.00;;
59042;SDS011;44826;51.596;5.624;2023-04-25T01:18:16;5.82;;;1.83;;
59042;SDS011;44826;51.596;5.624;2023-04-25T01:20:43;6.10;;;2.05;;
59042;SDS011;44826;51.596;5.624;2023-04-25T01:23:09;4.95;;;1.70;;
59042;SDS011;44826;51.596;5.624;2023-04-25T01:25:35;7.50;;;1.70;;
59042;SDS011;44826;51.596;5.624;2023-04-25T01:28:00;5.45;;;1.90;;
59042;SDS011;44826;51.596;5.624;2023-04-25T01:30:26;7.22;;;1.85;;
59042;SDS011;44826;51.596;5.624;2023-04-25T01:32:52;5.22;;;1.73;;
59042;SDS011;44826;51.596;5.624;2023-04-25T01:35:20;7.25;;;1.92;;
59042;SDS011;44826;51.596;5.624;2023-04-25T01:37:46;5.30;;;1.70;;
59042;SDS011;44826;51.596;5.624;2023-04-25T01:40:12;7.03;;;1.92;;
59042;SDS011;44826;51.596;5.624;2023-04-25T01:42:39;6.13;;;1.85;;
59042;SDS011;44826;51.596;5.624;2023-04-25T01:45:07;7.35;;;1.80;;
59042;SDS011;44826;51.596;5.624;2023-04-25T01:47:33;5.93;;;1.73;;
59042;SDS011;44826;51.596;5.624;2023-04-25T01:50:02;7.28;;;2.00;;
59042;SDS011;44826;51.596;5.624;2023-04-25T01:52:28;7.57;;;2.10;;
59042;SDS011;44826;51.596;5.624;2023-04-25T01:54:53;6.78;;;2.22;;
59042;SDS011;44826;51.596;5.624;2023-04-25T01:57:19;5.57;;;1.95;;
59042;SDS011;44826;51.596;5.624;2023-04-25T01:59:45;5.68;;;1.95;;
59042;SDS011;44826;51.596;5.624;2023-04-25T02:02:11;7.15;;;2.13;;
59042;SDS011;44826;51.596;5.624;2023-04-25T02:04:36;8.68;;;2.30;;
59042;SDS011;44826;51.596;5.624;2023-04-25T02:07:01;6.63;;;2.03;;
59042;SDS011;44826;51.596;5.624;2023-04-25T02:09:26;8.05;;;2.60;;
59042;SDS011;44826;51.596;5.624;2023-04-25T02:11:52;7.40;;;2.30;;
59042;SDS011;44826;51.596;5.624;2023-04-25T02:14:17;8.20;;;2.10;;
59042;SDS011;44826;51.596;5.624;2023-04-25T02:16:43;10.00;;;2.38;;
59042;SDS011;44826;51.596;5.624;2023-04-25T02:19:11;8.75;;;2.30;;
59042;SDS011;44826;51.596;5.624;2023-04-25T02:21:37;7.15;;;2.17;;
59042;SDS011;44826;51.596;5.624;2023-04-25T02:24:02;6.40;;;1.98;;
59042;SDS011;44826;51.596;5.624;2023-04-25T02:26:28;7.75;;;2.10;;
59042;SDS011;44826;51.596;5.624;2023-04-25T02:28:53;9.40;;;2.33;;
59042;SDS011;44826;51.596;5.624;2023-04-25T02:31:19;7.28;;;2.28;;
59042;SDS011;44826;51.596;5.624;2023-04-25T02:33:45;9.05;;;2.80;;
59042;SDS011;44826;51.596;5.624;2023-04-25T02:36:11;5.80;;;2.22;;
59042;SDS011;44826;51.596;5.624;2023-04-25T02:38:37;10.10;;;2.40;;
59042;SDS011;44826;51.596;5.624;2023-04-25T02:41:02;6.20;;;2.15;;
59042;SDS011;44826;51.596;5.624;2023-04-25T02:43:27;7.05;;;2.03;;
59042;SDS011;44826;51.596;5.624;2023-04-25T02:45:52;6.25;;;2.40;;
59042;SDS011;44826;51.596;5.624;2023-04-25T02:48:18;7.20;;;2.45;;
59042;SDS011;44826;51.596;5.624;2023-04-25T02:50:44;8.50;;;2.22;;
59042;SDS011;44826;51.596;5.624;2023-04-25T02:53:10;8.73;;;2.20;;
59042;SDS011;44826;51.596;5.624;2023-04-25T02:55:35;7.43;;;2.35;;
59042;SDS011;44826;51.596;5.624;2023-04-25T02:58:00;7.93;;;2.53;;
59042;SDS011;44826;51.596;5.624;2023-04-25T03:00:26;6.70;;;2.33;;
59042;SDS011;44826;51.596;5.624;2023-04-25T03:02:51;7.05;;;2.35;;
59042;SDS011;44826;51.596;5.624;2023-04-25T03:05:16;8.50;;;2.35;;
59042;SDS011;44826;51.596;5.624;2023-04-25T03:07:42;8.68;;;2.33;;
59042;SDS011;44826;51.596;5.624;2023-04-25T03:10:08;10.80;;;2.92;;
59042;SDS011;44826;51.596;5.624;2023-04-25T03:12:34;7.85;;;2.33;;
59042;SDS011;44826;51.596;5.624;2023-04-25T03:14:59;6.70;;;2.15;;
59042;SDS011;44826;51.596;5.624;2023-04-25T03:17:25;8.90;;;2.35;;
59042;SDS011;44826;51.596;5.624;2023-04-25T03:19:50;7.00;;;1.95;;
59042;SDS011;44826;51.596;5.624;2023-04-25T03:22:15;5.60;;;2.00;;
59042;SDS011;44826;51.596;5.624;2023-04-25T03:24:41;8.65;;;2.55;;
59042;SDS011;44826;51.596;5.624;2023-04-25T03:27:06;7.43;;;2.28;;
59042;SDS011;44826;51.596;5.624;2023-04-25T03:29:31;5.78;;;2.10;;
59042;SDS011;44826;51.596;5.624;2023-04-25T03:31:56;7.75;;;2.58;;
59042;SDS011;44826;51.596;5.624;2023-04-25T03:34:22;4.68;;;2.22;;
59042;SDS011;44826;51.596;5.624;2023-04-25T03:36:47;5.68;;;2.25;;
59042;SDS011;44826;51.596;5.624;2023-04-25T03:39:12;8.68;;;2.15;;
59042;SDS011;44826;51.596;5.624;2023-04-25T03:41:37;8.35;;;2.47;;
59042;SDS011;44826;51.596;5.624;2023-04-25T03:44:03;7.28;;;2.33;;
59042;SDS011;44826;51.596;5.624;2023-04-25T03:46:28;7.88;;;2.30;;
59042;SDS011;44826;51.596;5.624;2023-04-25T03:48:53;6.78;;;2.20;;
59042;SDS011;44826;51.596;5.624;2023-04-25T03:51:19;6.88;;;2.60;;
59042;SDS011;44826;51.596;5.624;2023-04-25T03:53:44;5.38;;;2.10;;
59042;SDS011;44826;51.596;5.624;2023-04-25T03:56:09;4.75;;;2.03;;
59042;SDS011;44826;51.596;5.624;2023-04-25T03:58:35;8.38;;;2.45;;
59042;SDS011;44826;51.596;5.624;2023-04-25T04:01:00;7.50;;;2.40;;
59042;SDS011;44826;51.596;5.624;2023-04-25T04:03:28;8.10;;;2.55;;
59042;SDS011;44826;51.596;5.624;2023-04-25T04:05:53;6.75;;;2.35;;
59042;SDS011;44826;51.596;5.624;2023-04-25T04:08:18;9.30;;;2.53;;
59042;SDS011;44826;51.596;5.624;2023-04-25T04:10:43;12.05;;;3.28;;
59042;SDS011;44826;51.596;5.624;2023-04-25T04:13:09;6.15;;;2.50;;
59042;SDS011;44826;51.596;5.624;2023-04-25T04:15:34;9.75;;;2.63;;
59042;SDS011;44826;51.596;5.624;2023-04-25T04:17:59;6.45;;;2.33;;
59042;SDS011;44826;51.596;5.624;2023-04-25T04:20:28;8.00;;;2.55;;
59042;SDS011;44826;51.596;5.624;2023-04-25T04:22:54;8.50;;;2.80;;
59042;SDS011;44826;51.596;5.624;2023-04-25T04:25:20;7.32;;;2.45;;
59042;SDS011;44826;51.596;5.624;2023-04-25T04:27:45;7.78;;;2.58;;
59042;SDS011;44826;51.596;5.624;2023-04-25T04:30:11;6.68;;;2.33;;
59042;SDS011;44826;51.596;5.624;2023-04-25T04:32:37;8.77;;;2.58;;
59042;SDS011;44826;51.596;5.624;2023-04-25T04:35:03;6.63;;;2.30;;
59042;SDS011;44826;51.596;5.624;2023-04-25T04:37:29;6.10;;;2.47;;
59042;SDS011;44826;51.596;5.624;2023-04-25T04:39:55;10.63;;;2.45;;
59042;SDS011;44826;51.596;5.624;2023-04-25T04:42:21;6.95;;;2.70;;
59042;SDS011;44826;51.596;5.624;2023-04-25T04:44:46;7.40;;;2.50;;
59042;SDS011;44826;51.596;5.624;2023-04-25T04:47:11;7.10;;;2.60;;
59042;SDS011;44826;51.596;5.624;2023-04-25T04:49:37;8.82;;;2.60;;
59042;SDS011;44826;51.596;5.624;2023-04-25T04:52:02;8.85;;;2.53;;
59042;SDS011;44826;51.596;5.624;2023-04-25T04:54:28;8.02;;;2.50;;
59042;SDS011;44826;51.596;5.624;2023-04-25T04:56:53;6.82;;;2.38;;
59042;SDS011;44826;51.596;5.624;2023-04-25T04:59:18;9.05;;;2.72;;
59042;SDS011;44826;51.596;5.624;2023-04-25T05:01:44;7.00;;;2.60;;
59042;SDS011;44826;51.596;5.624;2023-04-25T05:04:09;10.65;;;2.80;;
59042;SDS011;44826;51.596;5.624;2023-04-25T05:06:34;8.77;;;2.33;;
59042;SDS011;44826;51.596;5.624;2023-04-25T05:09:00;10.63;;;2.50;;
59042;SDS011;44826;51.596;5.624;2023-04-25T05:11:25;7.38;;;2.47;;
59042;SDS011;44826;51.596;5.624;2023-04-25T05:13:51;10.65;;;2.70;;
59042;SDS011;44826;51.596;5.624;2023-04-25T05:16:17;11.07;;;2.55;;
59042;SDS011;44826;51.596;5.624;2023-04-25T05:18:42;9.10;;;2.22;;
59042;SDS011;44826;51.596;5.624;2023-04-25T05:21:07;5.15;;;2.30;;
59042;SDS011;44826;51.596;5.624;2023-04-25T05:23:33;11.27;;;2.53;;
59042;SDS011;44826;51.596;5.624;2023-04-25T05:25:58;9.57;;;2.45;;
59042;SDS011;44826;51.596;5.624;2023-04-25T05:28:24;12.15;;;2.50;;
59042;SDS011;44826;51.596;5.624;2023-04-25T05:30:50;9.55;;;3.00;;
59042;SDS011;44826;51.596;5.624;2023-04-25T05:33:15;6.43;;;2.38;;
59042;SDS011;44826;51.596;5.624;2023-04-25T05:35:41;7.53;;;2.47;;
59042;SDS011;44826;51.596;5.624;2023-04-25T05:38:07;9.50;;;2.33;;
59042;SDS011;44826;51.596;5.624;2023-04-25T05:40:32;8.18;;;2.08;;
59042;SDS011;44826;51.596;5.624;2023-04-25T05:42:57;5.53;;;2.40;;
59042;SDS011;44826;51.596;5.624;2023-04-25T05:45:22;6.63;;;2.10;;
59042;SDS011;44826;51.596;5.624;2023-04-25T05:47:48;8.55;;;2.55;;
59042;SDS011;44826;51.596;5.624;2023-04-25T05:50:13;12.07;;;2.70;;
59042;SDS011;44826;51.596;5.624;2023-04-25T05:52:38;6.40;;;2.30;;
59042;SDS011;44826;51.596;5.624;2023-04-25T05:55:03;7.00;;;2.17;;
59042;SDS011;44826;51.596;5.624;2023-04-25T05:57:29;9.10;;;2.63;;
59042;SDS011;44826;51.596;5.624;2023-04-25T05:59:55;6.70;;;2.20;;
59042;SDS011;44826;51.596;5.624;2023-04-25T06:02:20;7.50;;;2.30;;
59042;SDS011;44826;51.596;5.624;2023-04-25T06:04:46;6.22;;;2.05;;
59042;SDS011;44826;51.596;5.624;2023-04-25T06:07:12;7.55;;;1.90;;
59042;SDS011;44826;51.596;5.624;2023-04-25T06:09:37;7.45;;;2.15;;
59042;SDS011;44826;51.596;5.624;2023-04-25T06:12:04;4.25;;;2.05;;
59042;SDS011;44826;51.596;5.624;2023-04-25T06:14:30;4.95;;;1.77;;
59042;SDS011;44826;51.596;5.624;2023-04-25T06:16:56;5.15;;;2.00;;
59042;SDS011;44826;51.596;5.624;2023-04-25T06:19:21;7.13;;;2.00;;
59042;SDS011;44826;51.596;5.624;2023-04-25T06:21:46;5.65;;;1.92;;
59042;SDS011;44826;51.596;5.624;2023-04-25T06:24:12;6.15;;;1.80;;
59042;SDS011;44826;51.596;5.624;2023-04-25T06:26:37;5.00;;;1.98;;
59042;SDS011;44826;51.596;5.624;2023-04-25T06:29:02;6.32;;;1.90;;
59042;SDS011;44826;51.596;5.624;2023-04-25T06:31:28;7.50;;;1.85;;
59042;SDS011;44826;51.596;5.624;2023-04-25T06:33:54;5.78;;;1.75;;
59042;SDS011;44826;51.596;5.624;2023-04-25T06:36:20;4.82;;;1.80;;
59042;SDS011;44826;51.596;5.624;2023-04-25T06:38:49;7.00;;;1.70;;
59042;SDS011;44826;51.596;5.624;2023-04-25T06:41:15;8.02;;;2.10;;
59042;SDS011;44826;51.596;5.624;2023-04-25T06:43:40;4.22;;;1.80;;
59042;SDS011;44826;51.596;5.624;2023-04-25T06:46:06;5.18;;;1.45;;
59042;SDS011;44826;51.596;5.624;2023-04-25T06:48:31;6.05;;;1.70;;
59042;SDS011;44826;51.596;5.624;2023-04-25T06:50:56;5.07;;;1.92;;
59042;SDS011;44826;51.596;5.624;2023-04-25T06:53:22;7.50;;;2.00;;
59042;SDS011;44826;51.596;5.624;2023-04-25T06:55:47;6.15;;;1.70;;
59042;SDS011;44826;51.596;5.624;2023-04-25T06:58:12;3.95;;;1.50;;
59042;SDS011;44826;51.596;5.624;2023-04-25T07:00:37;8.05;;;1.80;;
59042;SDS011;44826;51.596;5.624;2023-04-25T07:03:03;6.07;;;1.75;;
59042;SDS011;44826;51.596;5.624;2023-04-25T07:05:28;4.93;;;1.60;;
59042;SDS011;44826;51.596;5.624;2023-04-25T07:07:53;5.32;;;1.45;;
59042;SDS011;44826;51.596;5.624;2023-04-25T07:10:19;5.82;;;1.70;;
59042;SDS011;44826;51.596;5.624;2023-04-25T07:12:46;3.47;;;1.27;;
59042;SDS011;44826;51.596;5.624;2023-04-25T07:15:11;6.38;;;1.73;;
59042;SDS011;44826;51.596;5.624;2023-04-25T07:17:36;4.40;;;1.40;;
59042;SDS011;44826;51.596;5.624;2023-04-25T07:20:02;5.50;;;1.40;;
59042;SDS011;44826;51.596;5.624;2023-04-25T07:22:28;9.10;;;1.90;;
59042;SDS011;44826;51.596;5.624;2023-04-25T07:24:54;7.65;;;1.77;;
59042;SDS011;44826;51.596;5.624;2023-04-25T07:27:20;6.78;;;1.70;;
59042;SDS011;44826;51.596;5.624;2023-04-25T07:29:46;5.45;;;1.73;;
59042;SDS011;44826;51.596;5.624;2023-04-25T07:32:11;5.95;;;1.90;;
59042;SDS011;44826;51.596;5.624;2023-04-25T07:34:38;8.73;;;2.03;;
59042;SDS011;44826;51.596;5.624;2023-04-25T07:37:04;7.35;;;1.88;;
59042;SDS011;44826;51.596;5.624;2023-04-25T07:39:30;5.25;;;1.73;;
59042;SDS011;44826;51.596;5.624;2023-04-25T07:41:55;5.47;;;1.98;;
59042;SDS011;44826;51.596;5.624;2023-04-25T07:44:21;5.43;;;1.70;;
59042;SDS011;44826;51.596;5.624;2023-04-25T07:46:46;5.70;;;1.63;;
59042;SDS011;44826;51.596;5.624;2023-04-25T07:49:11;7.70;;;1.75;;
59042;SDS011;44826;51.596;5.624;2023-04-25T07:51:37;8.60;;;1.90;;
59042;SDS011;44826;51.596;5.624;2023-04-25T07:54:02;6.70;;;1.50;;
59042;SDS011;44826;51.596;5.624;2023-04-25T07:56:27;4.80;;;1.27;;
59042;SDS011;44826;51.596;5.624;2023-04-25T07:58:53;4.03;;;1.27;;
59042;SDS011;44826;51.596;5.624;2023-04-25T08:01:18;5.07;;;1.65;;
59042;SDS011;44826;51.596;5.624;2023-04-25T08:03:45;7.22;;;1.52;;
59042;SDS011;44826;51.596;5.624;2023-04-25T08:06:10;7.90;;;1.38;;
59042;SDS011;44826;51.596;5.624;2023-04-25T08:08:36;6.75;;;1.27;;
59042;SDS011;44826;51.596;5.624;2023-04-25T08:11:01;5.40;;;1.20;;
59042;SDS011;44826;51.596;5.624;2023-04-25T08:13:26;4.10;;;1.10;;
59042;SDS011;44826;51.596;5.624;2023-04-25T08:15:52;6.50;;;1.50;;
59042;SDS011;44826;51.596;5.624;2023-04-25T08:18:17;3.20;;;1.20;;
59042;SDS011;44826;51.596;5.624;2023-04-25T08:20:42;4.43;;;1.52;;
59042;SDS011;44826;51.596;5.624;2023-04-25T08:23:08;3.40;;;1.20;;
59042;SDS011;44826;51.596;5.624;2023-04-25T08:25:33;9.40;;;1.38;;
59042;SDS011;44826;51.596;5.624;2023-04-25T08:27:58;6.38;;;1.20;;
59042;SDS011;44826;51.596;5.624;2023-04-25T08:30:24;4.60;;;1.20;;
59042;SDS011;44826;51.596;5.624;2023-04-25T08:32:50;5.57;;;1.40;;
59042;SDS011;44826;51.596;5.624;2023-04-25T08:35:15;6.43;;;1.60;;
59042;SDS011;44826;51.596;5.624;2023-04-25T08:37:42;5.05;;;1.20;;
59042;SDS011;44826;51.596;5.624;2023-04-25T08:40:07;6.68;;;1.33;;
59042;SDS011;44826;51.596;5.624;2023-04-25T08:42:37;7.05;;;1.30;;
59042;SDS011;44826;51.596;5.624;2023-04-25T08:45:03;3.30;;;0.80;;
59042;SDS011;44826;51.596;5.624;2023-04-25T08:47:28;6.60;;;1.10;;
59042;SDS011;44826;51.596;5.624;2023-04-25T08:49:54;5.03;;;1.17;;
59042;SDS011;44826;51.596;5.624;2023-04-25T08:52:21;4.50;;;0.90;;
59042;SDS011;44826;51.596;5.624;2023-04-25T08:54:48;3.70;;;0.80;;
59042;SDS011;44826;51.596;5.624;2023-04-25T08:57:14;7.03;;;1.08;;
59042;SDS011;44826;51.596;5.624;2023-04-25T08:59:40;4.60;;;1.20;;
59042;SDS011;44826;51.596;5.624;2023-04-25T09:02:10;4.35;;;1.10;;
59042;SDS011;44826;51.596;5.624;2023-04-25T09:04:39;4.70;;;1.23;;
59042;SDS011;44826;51.596;5.624;2023-04-25T09:07:05;4.40;;;1.20;;
59042;SDS011;44826;51.596;5.624;2023-04-25T09:09:31;4.90;;;1.10;;
59042;SDS011;44826;51.596;5.624;2023-04-25T09:11:56;5.55;;;1.15;;
59042;SDS011;44826;51.596;5.624;2023-04-25T09:14:22;3.83;;;1.02;;
59042;SDS011;44826;51.596;5.624;2023-04-25T09:19:21;6.20;;;1.20;;
59042;SDS011;44826;51.596;5.624;2023-04-25T09:21:50;6.95;;;1.45;;
59042;SDS011;44826;51.596;5.624;2023-04-25T09:24:34;4.90;;;1.20;;
59042;SDS011;44826;51.596;5.624;2023-04-25T09:27:08;7.05;;;1.63;;
59042;SDS011;44826;51.596;5.624;2023-04-25T09:29:35;7.25;;;1.40;;
59042;SDS011;44826;51.596;5.624;2023-04-25T09:34:51;3.75;;;1.10;;
59042;SDS011;44826;51.596;5.624;2023-04-25T09:37:22;2.88;;;1.10;;
59042;SDS011;44826;51.596;5.624;2023-04-25T09:39:58;3.17;;;0.90;;
59042;SDS011;44826;51.596;5.624;2023-04-25T09:42:29;3.55;;;0.90;;
59042;SDS011;44826;51.596;5.624;2023-04-25T09:44:57;3.30;;;0.80;;
59042;SDS011;44826;51.596;5.624;2023-04-25T09:47:23;4.75;;;0.93;;
59042;SDS011;44826;51.596;5.624;2023-04-25T09:49:50;2.35;;;0.88;;
59042;SDS011;44826;51.596;5.624;2023-04-25T09:52:19;4.43;;;0.93;;
59042;SDS011;44826;51.596;5.624;2023-04-25T09:54:49;3.00;;;0.70;;
59042;SDS011;44826;51.596;5.624;2023-04-25T09:57:19;3.80;;;1.10;;
59042;SDS011;44826;51.596;5.624;2023-04-25T09:59:46;2.42;;;0.80;;
59042;SDS011;44826;51.596;5.624;2023-04-25T10:02:18;2.55;;;0.73;;
59042;SDS011;44826;51.596;5.624;2023-04-25T10:07:13;3.67;;;0.82;;
59042;SDS011;44826;51.596;5.624;2023-04-25T10:09:39;4.60;;;0.90;;
59042;SDS011;44826;51.596;5.624;2023-04-25T10:12:05;3.85;;;0.82;;
59042;SDS011;44826;51.596;5.624;2023-04-25T10:14:32;2.17;;;0.80;;
59042;SDS011;44826;51.596;5.624;2023-04-25T10:16:58;2.95;;;0.93;;
59042;SDS011;44826;51.596;5.624;2023-04-25T10:19:25;3.00;;;0.77;;
59042;SDS011;44826;51.596;5.624;2023-04-25T10:21:55;2.92;;;0.73;;
59042;SDS011;44826;51.596;5.624;2023-04-25T10:24:31;3.50;;;0.80;;
59042;SDS011;44826;51.596;5.624;2023-04-25T10:26:57;3.05;;;1.20;;
59042;SDS011;44826;51.596;5.624;2023-04-25T10:29:26;5.25;;;1.10;;
59042;SDS011;44826;51.596;5.624;2023-04-25T10:31:52;3.28;;;1.00;;
59042;SDS011;44826;51.596;5.624;2023-04-25T10:34:18;4.93;;;1.20;;
59042;SDS011;44826;51.596;5.624;2023-04-25T10:36:51;3.55;;;1.00;;
59042;SDS011;44826;51.596;5.624;2023-04-25T10:39:24;2.83;;;0.90;;
59042;SDS011;44826;51.596;5.624;2023-04-25T10:41:58;4.55;;;1.00;;
59042;SDS011;44826;51.596;5.624;2023-04-25T10:44:27;3.22;;;1.20;;
59042;SDS011;44826;51.596;5.624;2023-04-25T10:47:00;2.85;;;0.90;;
59042;SDS011;44826;51.596;5.624;2023-04-25T10:49:36;2.92;;;0.90;;
59042;SDS011;44826;51.596;5.624;2023-04-25T10:54:48;3.95;;;1.08;;
59042;SDS011;44826;51.596;5.624;2023-04-25T10:57:26;4.38;;;1.10;;
59042;SDS011;44826;51.596;5.624;2023-04-25T11:00:09;3.25;;;1.00;;
59042;SDS011;44826;51.596;5.624;2023-04-25T11:05:10;4.05;;;0.90;;
59042;SDS011;44826;51.596;5.624;2023-04-25T11:07:43;3.83;;;0.90;;
59042;SDS011;44826;51.596;5.624;2023-04-25T11:10:14;4.40;;;1.00;;
59042;SDS011;44826;51.596;5.624;2023-04-25T11:12:39;2.42;;;0.80;;
59042;SDS011;44826;51.596;5.624;2023-04-25T11:15:05;4.03;;;1.10;;
59042;SDS011;44826;51.596;5.624;2023-04-25T11:17:32;6.00;;;1.10;;
59042;SDS011;44826;51.596;5.624;2023-04-25T11:19:58;3.28;;;0.80;;
59042;SDS011;44826;51.596;5.624;2023-04-25T11:22:23;3.25;;;0.82;;
59042;SDS011;44826;51.596;5.624;2023-04-25T11:24:49;3.28;;;0.90;;
59042;SDS011;44826;51.596;5.624;2023-04-25T11:27:15;4.22;;;0.90;;
59042;SDS011;44826;51.596;5.624;2023-04-25T11:29:40;3.55;;;0.85;;
59042;SDS011;44826;51.596;5.624;2023-04-25T11:32:06;2.95;;;0.80;;
59042;SDS011;44826;51.596;5.624;2023-04-25T11:34:32;3.65;;;0.90;;
59042;SDS011;44826;51.596;5.624;2023-04-25T11:36:58;5.95;;;0.98;;
59042;SDS011;44826;51.596;5.624;2023-04-25T11:39:25;4.13;;;0.90;;
59042;SDS011;44826;51.596;5.624;2023-04-25T11:41:51;2.83;;;0.90;;
59042;SDS011;44826;51.596;5.624;2023-04-25T11:44:17;3.60;;;0.90;;
59042;SDS011;44826;51.596;5.624;2023-04-25T11:46:43;4.53;;;1.17;;
59042;SDS011;44826;51.596;5.624;2023-04-25T11:49:09;3.35;;;0.98;;
59042;SDS011;44826;51.596;5.624;2023-04-25T11:51:41;3.00;;;0.90;;
59042;SDS011;44826;51.596;5.624;2023-04-25T11:54:08;3.50;;;0.90;;
59042;SDS011;44826;51.596;5.624;2023-04-25T11:56:33;3.10;;;0.80;;
59042;SDS011;44826;51.596;5.624;2023-04-25T11:59:02;2.00;;;0.60;;
59042;SDS011;44826;51.596;5.624;2023-04-25T12:01:34;4.13;;;0.93;;
59042;SDS011;44826;51.596;5.624;2023-04-25T12:04:11;5.30;;;0.90;;
59042;SDS011;44826;51.596;5.624;2023-04-25T12:06:41;4.22;;;0.88;;
59042;SDS011;44826;51.596;5.624;2023-04-25T12:09:09;5.28;;;1.00;;
59042;SDS011;44826;51.596;5.624;2023-04-25T12:14:08;3.97;;;0.70;;
59042;SDS011;44826;51.596;5.624;2023-04-25T12:16:44;2.05;;;0.68;;
59042;SDS011;44826;51.596;5.624;2023-04-25T12:19:14;3.00;;;0.57;;
59042;SDS011;44826;51.596;5.624;2023-04-25T12:21:41;4.05;;;0.57;;
59042;SDS011;44826;51.596;5.624;2023-04-25T12:24:23;3.65;;;0.75;;
59042;SDS011;44826;51.596;5.624;2023-04-25T12:29:21;2.45;;;0.50;;
59042;SDS011;44826;51.596;5.624;2023-04-25T12:31:48;0.57;;;0.35;;
59042;SDS011;44826;51.596;5.624;2023-04-25T12:34:14;2.92;;;0.55;;
59042;SDS011;44826;51.596;5.624;2023-04-25T12:36:39;2.30;;;0.38;;
59042;SDS011;44826;51.596;5.624;2023-04-25T12:39:05;1.58;;;0.45;;
59042;SDS011;44826;51.596;5.624;2023-04-25T12:41:30;2.80;;;0.50;;
59042;SDS011;44826;51.596;5.624;2023-04-25T12:43:56;1.23;;;0.52;;
59042;SDS011;44826;51.596;5.624;2023-04-25T12:46:21;2.17;;;0.60;;
59042;SDS011;44826;51.596;5.624;2023-04-25T12:48:47;3.67;;;0.70;;
59042;SDS011;44826;51.596;5.624;2023-04-25T12:51:13;3.08;;;0.70;;
59042;SDS011;44826;51.596;5.624;2023-04-25T12:53:38;2.58;;;0.73;;
59042;SDS011;44826;51.596;5.624;2023-04-25T12:56:05;2.58;;;0.80;;
59042;SDS011;44826;51.596;5.624;2023-04-25T12:58:32;4.15;;;0.65;;
59042;SDS011;44826;51.596;5.624;2023-04-25T13:00:58;4.22;;;1.10;;
59042;SDS011;44826;51.596;5.624;2023-04-25T13:03:23;8.85;;;1.50;;
59042;SDS011;44826;51.596;5.624;2023-04-25T13:05:49;3.88;;;0.80;;
59042;SDS011;44826;51.596;5.624;2023-04-25T13:08:15;5.28;;;0.90;;
59042;SDS011;44826;51.596;5.624;2023-04-25T13:10:41;2.88;;;0.88;;
59042;SDS011;44826;51.596;5.624;2023-04-25T13:13:06;2.85;;;0.70;;
59042;SDS011;44826;51.596;5.624;2023-04-25T13:15:32;4.90;;;0.90;;
59042;SDS011;44826;51.596;5.624;2023-04-25T13:17:57;7.38;;;1.00;;
59042;SDS011;44826;51.596;5.624;2023-04-25T13:20:22;2.75;;;0.82;;
59042;SDS011;44826;51.596;5.624;2023-04-25T13:22:48;4.38;;;0.95;;
59042;SDS011;44826;51.596;5.624;2023-04-25T13:25:13;4.65;;;0.77;;
59042;SDS011;44826;51.596;5.624;2023-04-25T13:27:38;5.00;;;1.33;;
59042;SDS011;44826;51.596;5.624;2023-04-25T13:30:05;4.75;;;0.80;;
59042;SDS011;44826;51.596;5.624;2023-04-25T13:32:36;5.55;;;1.10;;
59042;SDS011;44826;51.596;5.624;2023-04-25T13:35:09;7.15;;;1.10;;
59042;SDS011;44826;51.596;5.624;2023-04-25T13:37:36;4.35;;;0.80;;
59042;SDS011;44826;51.596;5.624;2023-04-25T13:40:03;4.43;;;0.80;;
59042;SDS011;44826;51.596;5.624;2023-04-25T13:42:30;2.13;;;0.75;;
59042;SDS011;44826;51.596;5.624;2023-04-25T13:44:56;3.08;;;0.80;;
59042;SDS011;44826;51.596;5.624;2023-04-25T13:47:21;2.92;;;0.90;;
59042;SDS011;44826;51.596;5.624;2023-04-25T13:49:48;3.85;;;0.90;;
59042;SDS011;44826;51.596;5.624;2023-04-25T13:52:13;4.40;;;1.00;;
59042;SDS011;44826;51.596;5.624;2023-04-25T13:54:38;3.55;;;0.90;;
59042;SDS011;44826;51.596;5.624;2023-04-25T13:57:03;4.13;;;1.00;;
59042;SDS011;44826;51.596;5.624;2023-04-25T13:59:29;3.67;;;0.90;;
59042;SDS011;44826;51.596;5.624;2023-04-25T14:01:54;5.90;;;1.08;;
59042;SDS011;44826;51.596;5.624;2023-04-25T14:04:20;3.40;;;0.80;;
59042;SDS011;44826;51.596;5.624;2023-04-25T14:06:45;2.80;;;0.77;;
59042;SDS011;44826;51.596;5.624;2023-04-25T14:09:10;3.20;;;0.82;;
59042;SDS011;44826;51.596;5.624;2023-04-25T14:11:38;3.25;;;0.82;;
59042;SDS011;44826;51.596;5.624;2023-04-25T14:14:03;2.55;;;0.80;;
59042;SDS011;44826;51.596;5.624;2023-04-25T14:16:29;4.70;;;1.05;;
59042;SDS011;44826;51.596;5.624;2023-04-25T14:18:55;5.32;;;0.93;;
59042;SDS011;44826;51.596;5.624;2023-04-25T14:21:21;2.13;;;0.60;;
59042;SDS011;44826;51.596;5.624;2023-04-25T14:23:46;4.03;;;0.80;;
59042;SDS011;44826;51.596;5.624;2023-04-25T14:26:12;3.45;;;0.77;;
59042;SDS011;44826;51.596;5.624;2023-04-25T14:28:38;2.85;;;0.98;;
59042;SDS011;44826;51.596;5.624;2023-04-25T14:31:03;1.95;;;0.70;;
59042;SDS011;44826;51.596;5.624;2023-04-25T14:33:29;2.78;;;0.80;;
59042;SDS011;44826;51.596;5.624;2023-04-25T14:35:55;4.35;;;1.17;;
59042;SDS011;44826;51.596;5.624;2023-04-25T14:38:21;7.13;;;0.95;;
59042;SDS011;44826;51.596;5.624;2023-04-25T14:40:48;3.50;;;0.98;;
59042;SDS011;44826;51.596;5.624;2023-04-25T14:43:16;4.60;;;1.00;;
59042;SDS011;44826;51.596;5.624;2023-04-25T14:45:41;4.85;;;1.13;;
59042;SDS011;44826;51.596;5.624;2023-04-25T14:48:07;2.72;;;0.80;;
59042;SDS011;44826;51.596;5.624;2023-04-25T14:50:32;2.45;;;0.85;;
59042;SDS011;44826;51.596;5.624;2023-04-25T14:52:57;5.03;;;1.20;;
59042;SDS011;44826;51.596;5.624;2023-04-25T14:55:25;1.88;;;0.60;;
59042;SDS011;44826;51.596;5.624;2023-04-25T14:57:50;3.55;;;1.00;;
59042;SDS011;44826;51.596;5.624;2023-04-25T15:00:16;2.03;;;0.70;;